createdAt,value
2023-03-02T00:03:33.632Z,101876.25
2023-03-02T00:08:37.786Z,101884.84
2023-03-02T00:13:42.899Z,101886.50
2023-03-02T00:18:46.328Z,101891.81
2023-03-02T00:23:49.776Z,101899.72
2023-03-02T00:28:54.597Z,101899.28
2023-03-02T00:33:58.079Z,101892.38
2023-03-02T00:39:01.567Z,101884.81
2023-03-02T00:44:06.558Z,101877.91
2023-03-02T00:49:09.990Z,101879.63
2023-03-02T00:54:13.420Z,101878.06
2023-03-02T00:59:27.202Z,101872.97
2023-03-02T01:04:42.083Z,101872.19
2023-03-02T01:09:46.333Z,101872.94
2023-03-02T01:14:51.768Z,101872.44
2023-03-02T01:19:56.370Z,101880.88
2023-03-02T01:24:59.862Z,101863.06
2023-03-02T01:30:05.596Z,101850.84
2023-03-02T01:35:09.963Z,101863.91
2023-03-02T01:40:15.041Z,101854.31
2023-03-02T01:45:55.853Z,101854.16
2023-03-02T01:51:19.174Z,101851.06
2023-03-02T01:56:26.120Z,101840.94
2023-03-02T02:01:30.495Z,101835.91
2023-03-02T02:06:38.649Z,101832.47
2023-03-02T02:11:43.364Z,101843.66
2023-03-02T02:16:47.129Z,101845.91
2023-03-02T02:21:52.147Z,101845.22
2023-03-02T02:26:58.343Z,101839.06
2023-03-02T02:32:03.957Z,101837.56
2023-03-02T02:37:09.770Z,101837.84
2023-03-02T02:42:17.473Z,101833.25
2023-03-02T02:47:22.857Z,101822.31
2023-03-02T02:52:28.162Z,101832.47
2023-03-02T02:57:33.095Z,101825.44
2023-03-02T03:02:42.115Z,101830.53
2023-03-02T03:07:45.860Z,101824.59
2023-03-02T03:12:51.239Z,101813.06
2023-03-02T03:17:57.384Z,101815.94
2023-03-02T03:23:02.782Z,101806.38
2023-03-02T03:28:09.438Z,101801.22
2023-03-02T03:33:13.088Z,101803.81
2023-03-02T03:38:17.717Z,101810.75
2023-03-02T03:43:24.547Z,101809.06
2023-03-02T03:48:30.703Z,101817.91
2023-03-02T03:53:34.255Z,101821.41
2023-03-02T03:58:39.922Z,101834.63
2023-03-02T04:03:43.593Z,101836.69
2023-03-02T04:08:47.250Z,101834.44
2023-03-02T04:13:52.266Z,101840.72
2023-03-02T04:18:55.880Z,101829.06
2023-03-02T04:23:59.392Z,101833.13
2023-03-02T04:29:05.300Z,101829.75
2023-03-02T04:34:10.516Z,101827.81
2023-03-02T04:39:17.928Z,101822.50
2023-03-02T04:44:27.145Z,101830.28
2023-03-02T04:49:30.564Z,101828.88
2023-03-02T04:54:34.047Z,101824.91
2023-03-02T04:59:38.882Z,101826.09
2023-03-02T05:04:42.564Z,101820.31
2023-03-02T05:09:46.144Z,101806.25
2023-03-02T05:14:51.013Z,101803.41
2023-03-02T05:19:54.432Z,101803.41
2023-03-02T05:24:57.810Z,101799.53
2023-03-02T05:30:02.648Z,101800.19
2023-03-02T05:35:06.961Z,101804.72
2023-03-02T05:40:12.295Z,101801.53
2023-03-02T05:45:21.913Z,101801.44
2023-03-02T05:50:25.563Z,101804.19
2023-03-02T05:55:29.829Z,101799.81
2023-03-02T06:00:34.716Z,101813.03
2023-03-02T06:05:38.300Z,101823.66
2023-03-02T06:10:42.083Z,101824.38
2023-03-02T06:15:46.968Z,101842.22
2023-03-02T06:20:51.494Z,101843.38
2023-03-02T06:25:55.626Z,101855.09
2023-03-02T06:31:00.581Z,101858.59
2023-03-02T06:36:04.423Z,101858.88
2023-03-02T06:41:07.892Z,101855.72
2023-03-02T06:46:13.068Z,101871.69
2023-03-02T06:51:16.512Z,101865.72
2023-03-02T06:56:19.960Z,101855.50
2023-03-02T07:01:24.838Z,101855.78
2023-03-02T07:06:28.346Z,101844.59
2023-03-02T07:11:32.137Z,101844.50
2023-03-02T07:16:37.359Z,101838.63
2023-03-02T07:21:44.077Z,101834.88
2023-03-02T07:26:47.463Z,101824.31
2023-03-02T07:31:56.970Z,101830.19
2023-03-02T07:37:00.475Z,101820.38
2023-03-02T07:42:07.017Z,101828.28
2023-03-02T07:47:11.985Z,101828.25
2023-03-02T07:52:15.621Z,101827.13
2023-03-02T07:57:19.097Z,101827.59
2023-03-02T08:02:25.450Z,101830.53
2023-03-02T08:07:29.018Z,101832.28
2023-03-02T08:12:32.436Z,101830.69
2023-03-02T08:17:37.334Z,101835.91
2023-03-02T08:22:40.813Z,101836.47
2023-03-02T08:27:44.776Z,101836.59
2023-03-02T08:32:49.643Z,101834.41
2023-03-02T08:37:54.092Z,101830.22
2023-03-02T08:42:58.913Z,101833.97
2023-03-02T08:48:04.198Z,101833.81
2023-03-02T08:53:07.655Z,101838.78
2023-03-02T08:58:11.175Z,101836.84
2023-03-02T09:03:16.107Z,101833.41
2023-03-02T09:08:19.615Z,101827.91
2023-03-02T09:13:23.109Z,101837.00
2023-03-02T09:18:30.908Z,101841.63
2023-03-02T09:23:35.464Z,101832.66
2023-03-02T09:28:39.746Z,101832.38
2023-03-02T09:33:44.824Z,101835.75
2023-03-02T09:38:48.400Z,101832.09
2023-03-02T09:44:10.913Z,101839.38
2023-03-02T09:49:24.144Z,101852.22
2023-03-02T09:54:27.742Z,101846.28
2023-03-02T09:59:36.010Z,101842.94
2023-03-02T10:04:44.619Z,101840.78
2023-03-02T10:09:48.187Z,101830.84
2023-03-02T10:14:58.292Z,101835.59
2023-03-02T10:25:19.088Z,101824.94
2023-03-02T10:30:27.769Z,101824.44
2023-03-02T10:35:33.077Z,101828.16
2023-03-02T10:40:42.790Z,101810.69
2023-03-02T10:45:46.950Z,101808.81
2023-03-02T10:50:55.560Z,101803.94
2023-03-02T10:55:59.154Z,101799.97
2023-03-02T11:01:04.703Z,101792.94
2023-03-02T11:06:19.542Z,101793.97
2023-03-02T11:11:24.809Z,101789.00
2023-03-02T11:16:32.552Z,101784.50
2023-03-02T11:21:41.220Z,101785.41
2023-03-02T11:26:47.441Z,101784.56
2023-03-02T11:31:52.856Z,101773.25
2023-03-02T11:37:03.426Z,101776.94
2023-03-02T11:42:10.740Z,101774.78
2023-03-02T11:47:14.618Z,101764.94
2023-03-02T11:52:21.732Z,101775.88
2023-03-02T11:57:29.066Z,101774.66
2023-03-02T12:02:32.568Z,101754.72
2023-03-02T12:07:37.457Z,101748.34
2023-03-02T12:12:44.475Z,101740.88
2023-03-02T12:17:47.970Z,101739.13
2023-03-02T12:22:52.917Z,101747.91
2023-03-02T12:27:56.516Z,101732.19
2023-03-02T12:33:18.915Z,101720.31
2023-03-02T12:38:30.825Z,101724.41
2023-03-02T12:43:35.003Z,101725.75
2023-03-02T12:48:43.417Z,101711.63
2023-03-02T12:53:49.143Z,101711.50
2023-03-02T12:58:54.358Z,101713.53
2023-03-02T13:04:02.330Z,101713.34
2023-03-02T13:09:07.494Z,101704.31
2023-03-02T13:14:20.175Z,101688.63
2023-03-02T13:19:24.213Z,101682.88
2023-03-02T13:24:34.286Z,101678.19
2023-03-02T13:29:37.796Z,101668.34
2023-03-02T13:34:49.329Z,101670.81
2023-03-02T13:39:58.121Z,101675.44
2023-03-02T13:45:10.588Z,101681.50
2023-03-02T13:50:19.200Z,101668.22
2023-03-02T13:55:24.922Z,101664.66
2023-03-02T14:00:32.664Z,101655.56
2023-03-02T14:05:36.177Z,101660.59
2023-03-02T14:10:41.215Z,101641.28
2023-03-02T14:15:48.874Z,101653.75
2023-03-02T14:20:52.461Z,101652.69
2023-03-02T14:25:57.869Z,101641.25
2023-03-02T14:31:01.336Z,101636.69
2023-03-02T14:36:06.098Z,101642.06
2023-03-02T14:41:14.912Z,101629.84
2023-03-02T14:46:18.414Z,101641.38
2023-03-02T14:51:23.580Z,101636.09
2023-03-02T14:56:28.757Z,101632.69
2023-03-02T15:01:32.694Z,101630.00
2023-03-02T15:06:39.197Z,101634.00
2023-03-02T15:11:44.429Z,101619.81
2023-03-02T15:16:47.937Z,101620.56
2023-03-02T15:21:52.841Z,101615.56
2023-03-02T15:26:59.961Z,101615.75
2023-03-02T15:32:03.552Z,101621.31
2023-03-02T15:37:07.017Z,101618.66
2023-03-02T15:42:13.800Z,101612.53
2023-03-02T15:47:17.833Z,101611.22
2023-03-02T15:52:21.559Z,101603.91
2023-03-02T15:57:26.464Z,101601.03
2023-03-02T16:02:29.959Z,101604.19
2023-03-02T16:07:34.369Z,101601.97
2023-03-02T16:12:39.789Z,101600.22
2023-03-02T16:17:43.449Z,101602.53
2023-03-02T16:22:47.037Z,101608.22
2023-03-02T16:27:54.252Z,101606.38
2023-03-02T16:32:58.872Z,101605.22
2023-03-02T16:38:03.053Z,101606.09
2023-03-02T16:43:08.997Z,101612.00
2023-03-02T16:48:13.100Z,101622.03
2023-03-02T16:53:18.020Z,101621.47
2023-03-02T16:58:28.621Z,101640.28
2023-03-02T17:03:32.208Z,101642.44
2023-03-02T17:08:35.795Z,101647.91
2023-03-02T17:13:40.907Z,101636.84
2023-03-02T17:18:46.817Z,101639.22
2023-03-02T17:23:50.387Z,101658.81
2023-03-02T17:28:55.380Z,101659.81
2023-03-02T17:33:58.846Z,101676.75
2023-03-02T17:39:02.405Z,101660.63
2023-03-02T17:44:07.341Z,101661.00
2023-03-02T17:49:11.212Z,101659.22
2023-03-02T17:54:14.667Z,101645.63
2023-03-02T17:59:19.673Z,101660.44
2023-03-02T18:04:23.315Z,101659.84
2023-03-02T18:09:26.820Z,101660.25
2023-03-02T18:14:35.364Z,101668.47
2023-03-02T18:19:39.469Z,101671.97
2023-03-02T18:24:43.235Z,101675.31
2023-03-02T18:29:48.259Z,101688.31
2023-03-02T18:34:51.689Z,101689.69
2023-03-02T18:39:55.204Z,101698.28
2023-03-02T18:45:00.232Z,101687.03
2023-03-02T18:50:04.466Z,101695.28
2023-03-02T18:55:09.013Z,101687.09
2023-03-02T19:00:18.237Z,101686.31
2023-03-02T19:05:21.971Z,101687.22
2023-03-02T19:10:25.638Z,101679.69
2023-03-02T19:15:33.012Z,101682.88
2023-03-02T19:20:36.877Z,101687.38
2023-03-02T19:25:40.483Z,101687.78
2023-03-02T19:30:45.997Z,101692.19
2023-03-02T19:35:52.019Z,101689.16
2023-03-02T19:40:57.104Z,101697.66
2023-03-02T19:46:02.144Z,101694.06
2023-03-02T19:51:06.428Z,101685.09
2023-03-02T19:56:12.825Z,101685.78
2023-03-02T20:01:21.485Z,101692.88
2023-03-02T20:06:30.452Z,101686.78
2023-03-02T20:11:34.649Z,101699.22
2023-03-02T20:16:40.015Z,101703.34
2023-03-02T20:21:43.608Z,101700.78
2023-03-02T20:26:47.125Z,101703.44
2023-03-02T20:31:52.416Z,101699.94
2023-03-02T20:36:55.985Z,101718.59
2023-03-02T20:42:00.360Z,101713.19
2023-03-02T20:47:08.304Z,101721.56
2023-03-02T20:52:12.549Z,101727.47
2023-03-02T20:57:17.736Z,101725.03
2023-03-02T21:02:23.737Z,101737.13
2023-03-02T21:07:27.240Z,101731.56
2023-03-02T21:12:30.695Z,101732.69
2023-03-02T21:17:36.527Z,101733.75
2023-03-02T21:22:40.064Z,101740.41
2023-03-02T21:27:44.125Z,101731.69
2023-03-02T21:32:49.367Z,101719.97
2023-03-02T21:37:55.143Z,101726.91
2023-03-02T21:42:59.142Z,101716.25
2023-03-02T21:48:05.105Z,101727.13
2023-03-02T21:53:08.761Z,101726.50
2023-03-02T21:58:12.212Z,101723.78
2023-03-02T22:03:18.100Z,101734.97
2023-03-02T22:08:22.064Z,101733.59
2023-03-02T22:13:26.899Z,101734.13
2023-03-02T22:18:32.579Z,101718.41
2023-03-02T22:23:36.095Z,101723.50
2023-03-02T22:28:41.009Z,101723.25
2023-03-02T22:33:45.933Z,101732.44
2023-03-02T22:38:49.756Z,101726.56
2023-03-02T22:43:53.489Z,101736.53
2023-03-02T22:48:58.344Z,101724.00
2023-03-02T22:54:02.205Z,101716.78
2023-03-02T22:59:10.460Z,101724.50
2023-03-02T23:04:19.777Z,101716.91
2023-03-02T23:09:25.570Z,101723.91
2023-03-02T23:14:31.180Z,101712.75
2023-03-02T23:19:36.109Z,101711.47
2023-03-02T23:24:39.652Z,101716.56
2023-03-02T23:29:43.431Z,101706.41
2023-03-02T23:34:48.389Z,101706.31
2023-03-02T23:39:52.096Z,101701.50
2023-03-02T23:44:56.198Z,101714.63
2023-03-02T23:50:00.993Z,101697.13
2023-03-02T23:55:04.678Z,101693.34
